createdAt,value
2022-09-13T16:02:39.706Z,8.25
2022-09-13T16:04:12.133Z,9.00
2022-09-13T16:05:43.756Z,9.20
2022-09-13T16:07:15.869Z,8.60
2022-09-13T16:08:48.177Z,9.00
2022-09-13T16:10:20.651Z,8.20
2022-09-13T16:12:19.334Z,7.00
2022-09-13T16:13:50.984Z,8.00
2022-09-13T16:15:22.894Z,10.00
2022-09-13T16:16:58.226Z,7.80
2022-09-13T16:18:29.860Z,8.20
2022-09-13T16:20:02.436Z,8.20
2022-09-13T16:21:34.404Z,8.80
2022-09-13T16:23:06.155Z,8.00
2022-09-13T16:24:39.543Z,8.80
2022-09-13T16:26:11.306Z,8.20
2022-09-13T16:27:44.743Z,9.00
2022-09-13T16:29:16.426Z,10.00
2022-09-13T16:30:48.439Z,7.60
2022-09-13T16:32:20.178Z,8.60
2022-09-13T16:33:52.015Z,8.80
2022-09-13T16:35:26.556Z,7.80
2022-09-13T16:36:58.494Z,9.00
2022-09-13T16:38:30.278Z,9.20
2022-09-13T16:40:02.517Z,7.00
2022-09-13T16:41:34.228Z,7.80
2022-09-13T16:43:05.958Z,7.20
2022-09-13T16:44:37.630Z,7.00
2022-09-13T16:46:42.061Z,8.00
2022-09-13T17:03:39.069Z,6.80
2022-09-13T17:13:40.032Z,7.00
2022-09-13T17:25:11.625Z,46.25
2022-09-13T17:31:15.228Z,43.25
2022-09-13T17:39:24.846Z,96.75
2022-09-13T17:41:17.325Z,75.00
2022-09-13T17:44:04.784Z,65.25
2022-09-13T18:03:05.586Z,107.00
2022-09-13T18:05:13.784Z,101.50
2022-09-13T18:07:40.772Z,117.50
2022-09-13T18:09:45.705Z,139.00
2022-09-13T18:11:22.984Z,128.50
2022-09-13T18:12:54.987Z,121.25
2022-09-13T18:14:27.712Z,126.25
2022-09-13T18:16:04.769Z,153.33
2022-09-13T18:17:36.575Z,149.33
2022-09-13T18:19:09.272Z,137.67
2022-09-13T18:20:45.403Z,154.67
2022-09-13T18:22:17.225Z,141.33
2022-09-13T18:23:49.767Z,158.67
2022-09-13T18:25:23.574Z,144.33
2022-09-13T18:26:55.363Z,163.33
2022-09-13T18:28:27.887Z,145.67
2022-09-13T18:29:59.687Z,146.00
2022-09-13T18:31:32.558Z,143.00
2022-09-13T18:33:05.488Z,164.33
2022-09-13T18:34:38.556Z,144.33
2022-09-13T18:36:15.378Z,133.75
2022-09-13T18:37:47.095Z,141.33
2022-09-13T18:42:08.447Z,244.80
2022-09-13T18:43:40.782Z,217.67
2022-09-13T18:45:12.787Z,204.00
2022-09-13T18:46:44.721Z,206.75
2022-09-13T18:48:16.807Z,186.25
2022-09-13T18:49:48.569Z,180.75
2022-09-13T18:51:22.590Z,187.00
2022-09-13T18:52:55.253Z,167.25
2022-09-13T18:54:26.906Z,153.00
2022-09-13T18:56:01.003Z,177.25
2022-09-13T18:57:32.637Z,189.50
2022-09-13T18:59:05.346Z,161.33
2022-09-13T19:00:37.613Z,172.00
2022-09-13T19:02:11.105Z,173.50
2022-09-13T19:03:53.884Z,159.00
2022-09-13T19:05:26.573Z,169.00
2022-09-13T19:06:58.372Z,149.33
2022-09-13T19:08:30.024Z,148.67
2022-09-13T19:10:01.672Z,154.67
2022-09-13T19:11:46.416Z,149.67
2022-09-13T19:13:18.954Z,156.67
2022-09-13T19:14:50.773Z,159.67
2022-09-13T19:16:22.715Z,134.00
2022-09-13T19:17:54.976Z,164.67
2022-09-13T19:19:26.719Z,133.00
2022-09-13T19:21:02.816Z,138.67
2022-09-13T19:22:34.511Z,152.67
2022-09-13T19:24:11.684Z,139.00
2022-09-13T19:25:44.766Z,161.33
2022-09-13T19:27:16.433Z,152.00
2022-09-13T19:29:04.201Z,146.67
2022-09-13T19:30:36.346Z,153.00
2022-09-13T19:32:08.183Z,161.67
2022-09-13T19:33:40.178Z,148.00
2022-09-13T19:35:11.971Z,136.00
2022-09-13T19:36:44.615Z,153.00
2022-09-13T19:38:16.830Z,152.00
2022-09-13T19:39:48.603Z,147.67
2022-09-13T19:41:23.569Z,147.33
2022-09-13T19:42:55.231Z,134.00
2022-09-13T19:48:37.548Z,139.33
2022-09-13T19:49:58.994Z,148.00
2022-09-13T19:51:32.704Z,143.67
2022-09-13T19:53:04.365Z,145.33
2022-09-13T19:54:36.451Z,140.00
2022-09-13T19:56:10.785Z,144.67
2022-09-13T19:57:45.023Z,136.33
2022-09-13T19:59:19.686Z,138.00
2022-09-13T20:00:51.642Z,143.67
2022-09-13T20:02:25.572Z,141.33
2022-09-13T20:03:58.751Z,130.67
2022-09-13T20:05:35.620Z,141.67
2022-09-13T20:07:12.075Z,131.00
2022-09-13T20:08:43.770Z,129.00
2022-09-13T20:10:15.520Z,148.00
2022-09-13T20:11:48.566Z,130.33
2022-09-13T20:13:20.798Z,128.00
2022-09-13T20:14:52.646Z,141.00
2022-09-13T20:16:26.833Z,133.67
2022-09-13T20:17:58.529Z,135.67
2022-09-13T20:19:41.601Z,128.25
2022-09-13T20:21:15.770Z,127.00
2022-09-13T20:22:47.985Z,130.25
2022-09-13T20:24:20.154Z,130.00
2022-09-13T20:25:51.801Z,126.75
2022-09-13T20:27:26.751Z,130.00
2022-09-13T20:29:02.543Z,131.67
2022-09-13T20:30:35.243Z,128.50
2022-09-13T20:32:09.504Z,136.75
2022-09-13T20:33:42.858Z,138.75
2022-09-13T20:35:14.749Z,128.25
2022-09-13T20:36:47.601Z,129.75
2022-09-13T20:38:19.315Z,118.75
2022-09-13T20:39:51.455Z,133.75
2022-09-13T20:41:24.097Z,120.75
2022-09-13T20:42:57.434Z,129.50
2022-09-13T20:44:30.175Z,130.75
2022-09-13T20:46:02.462Z,121.75
2022-09-13T20:47:36.654Z,123.50
2022-09-13T20:49:09.179Z,129.75
2022-09-13T20:50:41.099Z,102.50
2022-09-13T20:52:13.170Z,179.75
2022-09-13T20:53:44.879Z,241.40
2022-09-13T20:55:16.577Z,190.50
2022-09-13T20:56:48.343Z,145.00
2022-09-13T20:58:21.064Z,151.67
2022-09-13T20:59:52.777Z,161.75
2022-09-13T21:01:24.793Z,163.67
2022-09-13T21:02:57.507Z,148.00
2022-09-13T21:04:29.168Z,146.00
2022-09-13T21:06:01.095Z,157.00
2022-09-13T21:07:51.565Z,119.25
2022-09-13T21:09:23.387Z,123.75
2022-09-13T21:11:03.373Z,144.33
2022-09-13T21:12:36.193Z,135.67
2022-09-13T21:14:08.615Z,141.67
2022-09-13T21:15:42.103Z,148.67
2022-09-13T21:17:13.825Z,118.75
2022-09-13T21:18:45.546Z,143.67
2022-09-13T21:20:17.293Z,131.25
2022-09-13T21:21:48.986Z,136.00
2022-09-13T21:23:20.703Z,144.33
2022-09-13T21:24:52.350Z,145.00
2022-09-13T21:26:26.933Z,112.25
2022-09-13T21:27:58.761Z,141.00
2022-09-13T21:29:32.421Z,115.50
2022-09-13T21:31:10.257Z,119.75
2022-09-13T21:32:42.067Z,141.67
2022-09-13T21:34:15.038Z,134.33
2022-09-13T21:35:46.725Z,135.00
2022-09-13T21:37:18.347Z,117.25
2022-09-13T21:38:50.252Z,139.67
2022-09-13T21:40:22.089Z,129.67
2022-09-13T21:41:53.851Z,135.00
2022-09-13T21:43:28.214Z,107.00
2022-09-13T21:44:59.900Z,128.25
2022-09-13T21:46:34.023Z,127.25
2022-09-13T21:48:06.307Z,98.75
2022-09-13T21:49:37.964Z,126.50
2022-09-13T21:51:23.323Z,112.50
2022-09-13T21:52:55.064Z,122.00
2022-09-13T21:54:26.955Z,122.25
2022-09-13T21:56:00.766Z,106.50
2022-09-13T21:57:33.150Z,105.00
2022-09-13T21:59:08.724Z,101.50
2022-09-13T22:00:40.412Z,117.00
2022-09-13T22:02:12.813Z,103.25
2022-09-13T22:03:45.140Z,94.50
2022-09-13T22:05:16.812Z,88.75
2022-09-13T22:06:51.600Z,92.00
2022-09-13T22:08:23.709Z,98.00
2022-09-13T22:09:55.743Z,96.50
2022-09-13T22:11:29.107Z,99.75
2022-09-13T22:13:01.202Z,105.00
2022-09-13T22:14:32.808Z,101.00
2022-09-13T22:16:08.649Z,202.75
2022-09-13T22:17:40.296Z,127.67
2022-09-13T22:19:15.649Z,110.50
2022-09-13T22:20:47.423Z,131.50
2022-09-13T22:22:19.099Z,110.25
2022-09-13T22:23:51.058Z,116.75
2022-09-13T22:25:22.714Z,113.50
2022-09-13T22:26:56.285Z,101.75
2022-09-13T22:28:27.954Z,105.25
2022-09-13T22:29:59.549Z,101.75
2022-09-13T22:31:33.015Z,84.75
2022-09-13T22:33:04.658Z,96.25
2022-09-13T22:34:36.277Z,90.25
